LGKF/EFL METAR and TAF weather

Enter ICAO airport designator
Station Type Date Time Source
LGKF METAR 2019/04/23 04:50 UTC NOAA

LGKF 230450Z 11015G25KT 9999 FEW020 SCT070 18/03 Q1013


Station Type Date Time Source
LGKF Decoded METAR 2019/04/23 04:50 UTC NOAA

Kefalhnia Airport , Greece (LGKF) 38-07N 020-30E 22M
Apr 23, 2019 - 12:50 AM EDT / 2019.04.23 0450 UTC
Wind: from the ESE (110 degrees) at 17 MPH (15 KT) gusting to 29 MPH (25 KT):0
Visibility: greater than 7 mile(s):0
Sky conditions: partly cloudy
Temperature: 64 F (18 C)
Dew Point: 37 F (3 C)
Relative Humidity: 36%
Pressure (altimeter): 29.91 in. Hg (1013 hPa)
ob: LGKF 230450Z 11015G25KT 9999 FEW020 SCT070 18/03 Q1013
cycle: 5

Station Type Date Time Source
LGKF TAF 2011/03/20 15:06 UTC NOAA

TAF LGKF 201400Z 2015/2103 05012KT 9999 FEW020 SCT080 PROB30
TEMPO 2015/2003 6000 RA SCT020 BKN060 PROB30
TEMPO 2015/2021 4000 TSRA SCT015 FEW018CB BKN025

Example: see airport list